Miguelturra, Spain
Current Conditions -  °F | °C
As of 8:00 PM on Thursday 18 Dec 2014 (Local Time) from LEAO Reporting Station
Clear Clear  
Wind Chill:   Ceiling: Unl
Heat Index:   Visibility: 6mi
Dew Point:   Wind: 0mph
Humidity: 87%   Direction: NA
Pressure: 30.39"   Gusts: NA
Location:  38.96°N, 3.89°W
Report Text: LEAO 181900Z 00000KT CAVOK 07/05 Q1029
Loading
Personal Weather Stations






























Interactive Weather Map New forecast layout! Learn more

10-Day Weather Forecast

Advertisements
Track Severe Weather on mobile